sensor_id;sensor_type;location;lat;lon;timestamp;temperature;humidity
7077;DHT22;3579;48.956;9.154;2023-04-20T00:00:05;17.90;53.60
7077;DHT22;3579;48.956;9.154;2023-04-20T00:02:39;17.90;53.60
7077;DHT22;3579;48.956;9.154;2023-04-20T00:05:06;17.90;53.60
7077;DHT22;3579;48.956;9.154;2023-04-20T00:07:34;17.90;53.70
7077;DHT22;3579;48.956;9.154;2023-04-20T00:10:01;17.90;53.60
7077;DHT22;3579;48.956;9.154;2023-04-20T00:12:27;17.90;53.60
7077;DHT22;3579;48.956;9.154;2023-04-20T00:14:53;17.90;53.70
7077;DHT22;3579;48.956;9.154;2023-04-20T00:17:19;17.90;53.70
7077;DHT22;3579;48.956;9.154;2023-04-20T00:19:45;17.90;53.70
7077;DHT22;3579;48.956;9.154;2023-04-20T00:22:11;17.90;53.70
7077;DHT22;3579;48.956;9.154;2023-04-20T00:24:37;17.90;53.70
7077;DHT22;3579;48.956;9.154;2023-04-20T00:27:03;17.90;53.70
7077;DHT22;3579;48.956;9.154;2023-04-20T00:29:29;17.90;53.70
7077;DHT22;3579;48.956;9.154;2023-04-20T00:31:55;17.90;53.70
7077;DHT22;3579;48.956;9.154;2023-04-20T00:34:21;17.90;53.70
7077;DHT22;3579;48.956;9.154;2023-04-20T00:36:47;17.90;53.70
7077;DHT22;3579;48.956;9.154;2023-04-20T00:39:13;17.90;53.70
7077;DHT22;3579;48.956;9.154;2023-04-20T00:41:41;17.90;53.70
7077;DHT22;3579;48.956;9.154;2023-04-20T00:44:07;17.90;53.70
7077;DHT22;3579;48.956;9.154;2023-04-20T00:46:36;17.90;53.70
7077;DHT22;3579;48.956;9.154;2023-04-20T00:49:02;17.90;53.70
7077;DHT22;3579;48.956;9.154;2023-04-20T00:51:29;17.90;53.80
7077;DHT22;3579;48.956;9.154;2023-04-20T00:53:56;17.90;53.80
7077;DHT22;3579;48.956;9.154;2023-04-20T00:56:22;17.90;53.70
7077;DHT22;3579;48.956;9.154;2023-04-20T00:58:49;18.00;53.70
7077;DHT22;3579;48.956;9.154;2023-04-20T01:01:15;17.90;53.50
7077;DHT22;3579;48.956;9.154;2023-04-20T01:03:44;18.00;53.40
7077;DHT22;3579;48.956;9.154;2023-04-20T01:06:12;18.00;53.40
7077;DHT22;3579;48.956;9.154;2023-04-20T01:08:50;18.00;53.30
7077;DHT22;3579;48.956;9.154;2023-04-20T01:11:16;18.10;53.20
7077;DHT22;3579;48.956;9.154;2023-04-20T01:13:43;18.10;53.20
7077;DHT22;3579;48.956;9.154;2023-04-20T01:16:10;18.10;53.10
7077;DHT22;3579;48.956;9.154;2023-04-20T01:18:44;18.10;53.10
7077;DHT22;3579;48.956;9.154;2023-04-20T01:21:12;18.10;53.10
7077;DHT22;3579;48.956;9.154;2023-04-20T01:23:38;18.10;53.20
7077;DHT22;3579;48.956;9.154;2023-04-20T01:26:08;18.10;53.20
7077;DHT22;3579;48.956;9.154;2023-04-20T01:28:35;18.10;53.20
7077;DHT22;3579;48.956;9.154;2023-04-20T01:31:02;18.00;53.20
7077;DHT22;3579;48.956;9.154;2023-04-20T01:33:29;18.10;53.30
7077;DHT22;3579;48.956;9.154;2023-04-20T01:35:55;18.00;53.20
7077;DHT22;3579;48.956;9.154;2023-04-20T01:38:22;18.00;53.30
7077;DHT22;3579;48.956;9.154;2023-04-20T01:40:49;17.90;53.30
7077;DHT22;3579;48.956;9.154;2023-04-20T01:43:16;18.00;53.40
7077;DHT22;3579;48.956;9.154;2023-04-20T01:45:42;17.90;53.30
7077;DHT22;3579;48.956;9.154;2023-04-20T01:48:08;17.90;53.40
7077;DHT22;3579;48.956;9.154;2023-04-20T01:50:34;17.90;53.50
7077;DHT22;3579;48.956;9.154;2023-04-20T01:53:00;17.90;53.50
7077;DHT22;3579;48.956;9.154;2023-04-20T01:55:26;17.90;53.60
7077;DHT22;3579;48.956;9.154;2023-04-20T02:00:30;17.80;53.90
7077;DHT22;3579;48.956;9.154;2023-04-20T02:02:56;17.80;53.60
7077;DHT22;3579;48.956;9.154;2023-04-20T02:05:22;17.70;53.60
7077;DHT22;3579;48.956;9.154;2023-04-20T02:07:48;17.80;53.70
7077;DHT22;3579;48.956;9.154;2023-04-20T02:10:14;17.80;53.70
7077;DHT22;3579;48.956;9.154;2023-04-20T02:12:40;17.80;53.70
7077;DHT22;3579;48.956;9.154;2023-04-20T02:15:07;17.80;53.60
7077;DHT22;3579;48.956;9.154;2023-04-20T02:17:34;17.80;53.60
7077;DHT22;3579;48.956;9.154;2023-04-20T02:20:02;17.80;53.50
7077;DHT22;3579;48.956;9.154;2023-04-20T02:22:31;17.80;53.50
7077;DHT22;3579;48.956;9.154;2023-04-20T02:25:01;17.90;53.40
7077;DHT22;3579;48.956;9.154;2023-04-20T02:27:28;17.90;53.40
7077;DHT22;3579;48.956;9.154;2023-04-20T02:29:54;17.90;53.80
7077;DHT22;3579;48.956;9.154;2023-04-20T02:32:20;17.90;53.10
7077;DHT22;3579;48.956;9.154;2023-04-20T02:34:46;17.90;53.00
7077;DHT22;3579;48.956;9.154;2023-04-20T02:37:12;18.00;53.20
7077;DHT22;3579;48.956;9.154;2023-04-20T02:39:38;18.00;53.10
7077;DHT22;3579;48.956;9.154;2023-04-20T02:42:04;18.00;53.10
7077;DHT22;3579;48.956;9.154;2023-04-20T02:44:30;17.90;53.10
7077;DHT22;3579;48.956;9.154;2023-04-20T02:46:56;17.90;53.20
7077;DHT22;3579;48.956;9.154;2023-04-20T02:49:22;17.90;53.20
7077;DHT22;3579;48.956;9.154;2023-04-20T02:51:48;17.90;53.30
7077;DHT22;3579;48.956;9.154;2023-04-20T02:54:15;17.90;53.40
7077;DHT22;3579;48.956;9.154;2023-04-20T02:56:41;17.80;53.30
7077;DHT22;3579;48.956;9.154;2023-04-20T02:59:07;17.80;53.40
7077;DHT22;3579;48.956;9.154;2023-04-20T03:01:34;17.80;53.40
7077;DHT22;3579;48.956;9.154;2023-04-20T03:04:00;17.80;53.50
7077;DHT22;3579;48.956;9.154;2023-04-20T03:06:25;17.70;53.50
7077;DHT22;3579;48.956;9.154;2023-04-20T03:08:52;17.70;53.60
7077;DHT22;3579;48.956;9.154;2023-04-20T03:11:18;17.70;53.60
7077;DHT22;3579;48.956;9.154;2023-04-20T03:13:44;17.70;54.20
7077;DHT22;3579;48.956;9.154;2023-04-20T03:16:10;17.70;53.60
7077;DHT22;3579;48.956;9.154;2023-04-20T03:18:37;17.70;53.70
7077;DHT22;3579;48.956;9.154;2023-04-20T03:21:03;17.60;53.60
7077;DHT22;3579;48.956;9.154;2023-04-20T03:23:29;17.60;53.70
7077;DHT22;3579;48.956;9.154;2023-04-20T03:25:55;17.60;53.70
7077;DHT22;3579;48.956;9.154;2023-04-20T03:28:22;17.60;53.70
7077;DHT22;3579;48.956;9.154;2023-04-20T03:30:48;17.60;53.70
7077;DHT22;3579;48.956;9.154;2023-04-20T03:33:14;17.60;53.70
7077;DHT22;3579;48.956;9.154;2023-04-20T03:35:40;17.60;53.70
7077;DHT22;3579;48.956;9.154;2023-04-20T03:38:07;17.60;53.70
7077;DHT22;3579;48.956;9.154;2023-04-20T03:40:33;17.60;53.70
7077;DHT22;3579;48.956;9.154;2023-04-20T03:42:59;17.60;53.70
7077;DHT22;3579;48.956;9.154;2023-04-20T03:45:26;17.60;53.60
7077;DHT22;3579;48.956;9.154;2023-04-20T03:47:52;17.60;53.60
7077;DHT22;3579;48.956;9.154;2023-04-20T03:50:18;17.60;53.60
7077;DHT22;3579;48.956;9.154;2023-04-20T03:52:44;17.60;53.60
7077;DHT22;3579;48.956;9.154;2023-04-20T03:55:10;17.60;53.50
7077;DHT22;3579;48.956;9.154;2023-04-20T03:57:37;17.60;53.60
7077;DHT22;3579;48.956;9.154;2023-04-20T04:00:03;17.70;53.60
7077;DHT22;3579;48.956;9.154;2023-04-20T04:02:32;17.70;53.50
7077;DHT22;3579;48.956;9.154;2023-04-20T04:04:59;17.70;53.50
7077;DHT22;3579;48.956;9.154;2023-04-20T04:07:25;17.70;53.40
7077;DHT22;3579;48.956;9.154;2023-04-20T04:09:51;17.70;53.40
7077;DHT22;3579;48.956;9.154;2023-04-20T04:12:17;17.70;53.40
7077;DHT22;3579;48.956;9.154;2023-04-20T04:14:43;17.70;53.40
7077;DHT22;3579;48.956;9.154;2023-04-20T04:17:09;17.60;53.40
7077;DHT22;3579;48.956;9.154;2023-04-20T04:19:35;17.60;53.50
7077;DHT22;3579;48.956;9.154;2023-04-20T04:22:01;17.60;53.50
7077;DHT22;3579;48.956;9.154;2023-04-20T04:24:27;17.60;53.60
7077;DHT22;3579;48.956;9.154;2023-04-20T04:26:53;17.60;53.60
7077;DHT22;3579;48.956;9.154;2023-04-20T04:29:21;17.60;53.60
7077;DHT22;3579;48.956;9.154;2023-04-20T04:31:48;17.60;53.70
7077;DHT22;3579;48.956;9.154;2023-04-20T04:34:14;17.50;53.50
7077;DHT22;3579;48.956;9.154;2023-04-20T04:36:40;17.60;53.60
7077;DHT22;3579;48.956;9.154;2023-04-20T04:39:06;17.60;53.60
7077;DHT22;3579;48.956;9.154;2023-04-20T04:41:32;17.60;53.60
7077;DHT22;3579;48.956;9.154;2023-04-20T04:44:11;17.60;53.40
7077;DHT22;3579;48.956;9.154;2023-04-20T04:46:37;17.70;53.40
7077;DHT22;3579;48.956;9.154;2023-04-20T04:49:03;17.70;53.20
7077;DHT22;3579;48.956;9.154;2023-04-20T04:51:30;17.80;53.20
7077;DHT22;3579;48.956;9.154;2023-04-20T04:53:56;17.90;53.10
7077;DHT22;3579;48.956;9.154;2023-04-20T04:56:23;17.90;53.00
7077;DHT22;3579;48.956;9.154;2023-04-20T04:58:49;18.00;52.90
7077;DHT22;3579;48.956;9.154;2023-04-20T05:01:15;18.10;52.70
7077;DHT22;3579;48.956;9.154;2023-04-20T05:03:42;18.20;52.70
7077;DHT22;3579;48.956;9.154;2023-04-20T05:06:08;18.30;52.50
7077;DHT22;3579;48.956;9.154;2023-04-20T05:08:34;18.40;52.40
7077;DHT22;3579;48.956;9.154;2023-04-20T05:11:00;18.40;52.30
7077;DHT22;3579;48.956;9.154;2023-04-20T05:13:26;18.50;52.10
7077;DHT22;3579;48.956;9.154;2023-04-20T05:15:53;18.60;52.00
7077;DHT22;3579;48.956;9.154;2023-04-20T05:18:19;18.70;51.90
7077;DHT22;3579;48.956;9.154;2023-04-20T05:20:45;18.80;51.90
7077;DHT22;3579;48.956;9.154;2023-04-20T05:23:11;18.80;51.70
7077;DHT22;3579;48.956;9.154;2023-04-20T05:25:37;18.90;51.60
7077;DHT22;3579;48.956;9.154;2023-04-20T05:28:03;19.00;52.10
7077;DHT22;3579;48.956;9.154;2023-04-20T05:30:34;19.10;51.60
7077;DHT22;3579;48.956;9.154;2023-04-20T05:33:00;19.20;51.20
7077;DHT22;3579;48.956;9.154;2023-04-20T05:35:26;19.30;51.00
7077;DHT22;3579;48.956;9.154;2023-04-20T05:37:52;19.50;50.90
7077;DHT22;3579;48.956;9.154;2023-04-20T05:40:18;19.60;50.60
7077;DHT22;3579;48.956;9.154;2023-04-20T05:42:44;19.80;50.40
7077;DHT22;3579;48.956;9.154;2023-04-20T05:45:10;19.90;50.00
7077;DHT22;3579;48.956;9.154;2023-04-20T05:47:37;20.10;49.70
7077;DHT22;3579;48.956;9.154;2023-04-20T05:50:04;20.40;49.30
7077;DHT22;3579;48.956;9.154;2023-04-20T05:52:30;20.60;48.90
7077;DHT22;3579;48.956;9.154;2023-04-20T05:54:56;20.80;48.50
7077;DHT22;3579;48.956;9.154;2023-04-20T05:57:24;21.00;48.30
7077;DHT22;3579;48.956;9.154;2023-04-20T05:59:50;21.20;47.90
7077;DHT22;3579;48.956;9.154;2023-04-20T06:02:16;21.40;47.50
7077;DHT22;3579;48.956;9.154;2023-04-20T06:04:42;21.70;47.10
7077;DHT22;3579;48.956;9.154;2023-04-20T06:07:08;21.90;46.80
7077;DHT22;3579;48.956;9.154;2023-04-20T06:09:34;22.20;46.40
7077;DHT22;3579;48.956;9.154;2023-04-20T06:12:00;22.50;46.00
7077;DHT22;3579;48.956;9.154;2023-04-20T06:14:27;22.70;45.50
7077;DHT22;3579;48.956;9.154;2023-04-20T06:16:53;22.90;45.20
7077;DHT22;3579;48.956;9.154;2023-04-20T06:19:19;23.10;44.90
7077;DHT22;3579;48.956;9.154;2023-04-20T06:21:45;23.30;44.60
7077;DHT22;3579;48.956;9.154;2023-04-20T06:24:11;23.30;44.50
7077;DHT22;3579;48.956;9.154;2023-04-20T06:26:37;23.40;44.40
7077;DHT22;3579;48.956;9.154;2023-04-20T06:29:03;23.40;44.30
7077;DHT22;3579;48.956;9.154;2023-04-20T06:31:29;23.60;44.20
7077;DHT22;3579;48.956;9.154;2023-04-20T06:33:55;23.60;44.10
7077;DHT22;3579;48.956;9.154;2023-04-20T06:36:21;23.70;44.70
7077;DHT22;3579;48.956;9.154;2023-04-20T06:38:47;23.70;44.00
7077;DHT22;3579;48.956;9.154;2023-04-20T06:41:13;24.50;43.90
7077;DHT22;3579;48.956;9.154;2023-04-20T06:43:40;25.50;42.50
7077;DHT22;3579;48.956;9.154;2023-04-20T06:46:06;26.40;41.00
7077;DHT22;3579;48.956;9.154;2023-04-20T06:48:33;27.10;39.70
7077;DHT22;3579;48.956;9.154;2023-04-20T06:50:59;27.50;38.80
7077;DHT22;3579;48.956;9.154;2023-04-20T06:53:26;27.80;37.90
7077;DHT22;3579;48.956;9.154;2023-04-20T06:55:55;28.10;35.60
7077;DHT22;3579;48.956;9.154;2023-04-20T06:58:21;27.50;33.10
7077;DHT22;3579;48.956;9.154;2023-04-20T07:00:47;27.30;33.50
7077;DHT22;3579;48.956;9.154;2023-04-20T07:03:13;25.30;30.30
7077;DHT22;3579;48.956;9.154;2023-04-20T07:05:40;24.20;32.00
7077;DHT22;3579;48.956;9.154;2023-04-20T07:08:06;23.60;31.60
7077;DHT22;3579;48.956;9.154;2023-04-20T07:10:34;23.70;33.10
7077;DHT22;3579;48.956;9.154;2023-04-20T07:13:01;23.90;33.10
7077;DHT22;3579;48.956;9.154;2023-04-20T07:15:27;23.80;34.10
7077;DHT22;3579;48.956;9.154;2023-04-20T07:17:53;23.40;35.80
7077;DHT22;3579;48.956;9.154;2023-04-20T07:20:19;23.00;37.00
7077;DHT22;3579;48.956;9.154;2023-04-20T07:22:45;22.90;38.00
7077;DHT22;3579;48.956;9.154;2023-04-20T07:25:12;22.90;38.50
7077;DHT22;3579;48.956;9.154;2023-04-20T07:27:39;22.90;38.70
7077;DHT22;3579;48.956;9.154;2023-04-20T07:30:09;23.00;39.10
7077;DHT22;3579;48.956;9.154;2023-04-20T07:32:37;22.10;38.80
7077;DHT22;3579;48.956;9.154;2023-04-20T07:35:04;23.10;39.90
7077;DHT22;3579;48.956;9.154;2023-04-20T07:37:33;23.10;40.10
7077;DHT22;3579;48.956;9.154;2023-04-20T07:39:59;23.20;40.40
7077;DHT22;3579;48.956;9.154;2023-04-20T07:42:25;23.30;40.90
7077;DHT22;3579;48.956;9.154;2023-04-20T07:44:51;23.30;40.90
7077;DHT22;3579;48.956;9.154;2023-04-20T07:47:17;23.40;41.20
7077;DHT22;3579;48.956;9.154;2023-04-20T07:49:43;23.30;41.70
7077;DHT22;3579;48.956;9.154;2023-04-20T07:52:09;23.40;41.80
7077;DHT22;3579;48.956;9.154;2023-04-20T07:54:37;23.40;42.10
7077;DHT22;3579;48.956;9.154;2023-04-20T07:57:03;23.30;42.40
7077;DHT22;3579;48.956;9.154;2023-04-20T07:59:29;23.30;42.70
7077;DHT22;3579;48.956;9.154;2023-04-20T08:02:00;23.20;42.90
7077;DHT22;3579;48.956;9.154;2023-04-20T08:04:27;23.20;43.20
7077;DHT22;3579;48.956;9.154;2023-04-20T08:06:53;23.20;43.40
7077;DHT22;3579;48.956;9.154;2023-04-20T08:09:19;23.30;43.60
7077;DHT22;3579;48.956;9.154;2023-04-20T08:11:46;23.30;43.70
7077;DHT22;3579;48.956;9.154;2023-04-20T08:14:14;23.30;43.90
7077;DHT22;3579;48.956;9.154;2023-04-20T08:16:41;23.30;44.10
7077;DHT22;3579;48.956;9.154;2023-04-20T08:19:08;23.30;44.30
7077;DHT22;3579;48.956;9.154;2023-04-20T08:21:38;23.40;44.50
7077;DHT22;3579;48.956;9.154;2023-04-20T08:24:05;23.50;44.50
7077;DHT22;3579;48.956;9.154;2023-04-20T08:26:32;23.50;44.60
7077;DHT22;3579;48.956;9.154;2023-04-20T08:29:01;23.50;44.70
7077;DHT22;3579;48.956;9.154;2023-04-20T08:31:28;23.50;44.90
7077;DHT22;3579;48.956;9.154;2023-04-20T08:33:54;23.50;45.20
7077;DHT22;3579;48.956;9.154;2023-04-20T08:36:20;23.40;45.60
7077;DHT22;3579;48.956;9.154;2023-04-20T08:38:51;23.40;45.90
7077;DHT22;3579;48.956;9.154;2023-04-20T08:41:17;23.30;46.10
7077;DHT22;3579;48.956;9.154;2023-04-20T08:43:44;23.20;46.30
7077;DHT22;3579;48.956;9.154;2023-04-20T08:46:12;23.10;46.40
7077;DHT22;3579;48.956;9.154;2023-04-20T08:48:39;23.00;46.50
7077;DHT22;3579;48.956;9.154;2023-04-20T08:51:06;23.50;47.10
7077;DHT22;3579;48.956;9.154;2023-04-20T08:53:32;22.90;46.60
7077;DHT22;3579;48.956;9.154;2023-04-20T08:55:58;22.90;46.70
7077;DHT22;3579;48.956;9.154;2023-04-20T08:58:29;22.90;46.90
7077;DHT22;3579;48.956;9.154;2023-04-20T09:00:55;22.80;46.90
7077;DHT22;3579;48.956;9.154;2023-04-20T09:03:39;22.70;47.10
7077;DHT22;3579;48.956;9.154;2023-04-20T09:06:17;22.70;47.30
7077;DHT22;3579;48.956;9.154;2023-04-20T09:08:51;22.60;47.40
7077;DHT22;3579;48.956;9.154;2023-04-20T09:11:26;22.50;47.30
7077;DHT22;3579;48.956;9.154;2023-04-20T09:14:06;22.50;47.30
7077;DHT22;3579;48.956;9.154;2023-04-20T09:16:35;21.70;43.70
7077;DHT22;3579;48.956;9.154;2023-04-20T09:19:04;19.80;41.40
7077;DHT22;3579;48.956;9.154;2023-04-20T09:21:30;20.60;41.60
7077;DHT22;3579;48.956;9.154;2023-04-20T09:24:04;20.30;41.20
7077;DHT22;3579;48.956;9.154;2023-04-20T09:26:36;20.10;40.80
7077;DHT22;3579;48.956;9.154;2023-04-20T09:29:03;20.20;41.40
7077;DHT22;3579;48.956;9.154;2023-04-20T09:31:29;20.70;41.50
7077;DHT22;3579;48.956;9.154;2023-04-20T09:34:02;21.00;41.90
7077;DHT22;3579;48.956;9.154;2023-04-20T09:39:12;21.40;42.90
7077;DHT22;3579;48.956;9.154;2023-04-20T09:41:40;21.50;43.10
7077;DHT22;3579;48.956;9.154;2023-04-20T09:44:07;21.50;43.50
7077;DHT22;3579;48.956;9.154;2023-04-20T09:46:35;21.60;43.80
7077;DHT22;3579;48.956;9.154;2023-04-20T09:49:09;21.60;44.00
7077;DHT22;3579;48.956;9.154;2023-04-20T09:51:44;21.60;44.10
7077;DHT22;3579;48.956;9.154;2023-04-20T09:54:11;21.60;44.50
7077;DHT22;3579;48.956;9.154;2023-04-20T09:56:38;21.60;44.70
7077;DHT22;3579;48.956;9.154;2023-04-20T09:59:05;21.70;44.90
7077;DHT22;3579;48.956;9.154;2023-04-20T10:01:32;21.70;45.00
7077;DHT22;3579;48.956;9.154;2023-04-20T10:04:02;21.70;45.20
7077;DHT22;3579;48.956;9.154;2023-04-20T10:06:30;21.80;45.40
7077;DHT22;3579;48.956;9.154;2023-04-20T10:08:59;21.80;45.60
7077;DHT22;3579;48.956;9.154;2023-04-20T10:11:31;21.80;45.70
7077;DHT22;3579;48.956;9.154;2023-04-20T10:13:59;21.80;45.80
7077;DHT22;3579;48.956;9.154;2023-04-20T10:16:25;21.80;46.20
7077;DHT22;3579;48.956;9.154;2023-04-20T10:18:56;21.80;46.40
7077;DHT22;3579;48.956;9.154;2023-04-20T10:21:23;21.90;46.60
7077;DHT22;3579;48.956;9.154;2023-04-20T10:23:50;21.90;46.70
7077;DHT22;3579;48.956;9.154;2023-04-20T10:26:16;21.90;46.70
7077;DHT22;3579;48.956;9.154;2023-04-20T10:28:43;21.90;46.80
7077;DHT22;3579;48.956;9.154;2023-04-20T10:33:52;22.00;46.90
7077;DHT22;3579;48.956;9.154;2023-04-20T10:36:29;22.00;47.10
7077;DHT22;3579;48.956;9.154;2023-04-20T10:38:57;22.00;47.20
7077;DHT22;3579;48.956;9.154;2023-04-20T10:41:24;22.00;47.20
7077;DHT22;3579;48.956;9.154;2023-04-20T10:43:50;22.00;47.50
7077;DHT22;3579;48.956;9.154;2023-04-20T10:46:23;22.00;47.60
7077;DHT22;3579;48.956;9.154;2023-04-20T10:48:56;22.00;47.70
7077;DHT22;3579;48.956;9.154;2023-04-20T10:51:23;21.90;47.80
7077;DHT22;3579;48.956;9.154;2023-04-20T10:54:06;21.90;48.00
7077;DHT22;3579;48.956;9.154;2023-04-20T10:56:39;21.90;48.10
7077;DHT22;3579;48.956;9.154;2023-04-20T10:59:07;21.90;48.20
7077;DHT22;3579;48.956;9.154;2023-04-20T11:01:34;21.90;48.50
7077;DHT22;3579;48.956;9.154;2023-04-20T11:04:00;21.90;48.70
7077;DHT22;3579;48.956;9.154;2023-04-20T11:06:26;21.90;48.80
7077;DHT22;3579;48.956;9.154;2023-04-20T11:08:53;21.90;48.60
7077;DHT22;3579;48.956;9.154;2023-04-20T11:11:20;21.90;48.60
7077;DHT22;3579;48.956;9.154;2023-04-20T11:13:47;21.90;48.20
7077;DHT22;3579;48.956;9.154;2023-04-20T11:16:15;21.90;48.10
7077;DHT22;3579;48.956;9.154;2023-04-20T11:18:51;21.90;48.00
7077;DHT22;3579;48.956;9.154;2023-04-20T11:21:19;21.90;48.20
7077;DHT22;3579;48.956;9.154;2023-04-20T11:23:46;22.00;48.40
7077;DHT22;3579;48.956;9.154;2023-04-20T11:26:12;21.90;48.50
7077;DHT22;3579;48.956;9.154;2023-04-20T11:28:50;22.00;48.70
7077;DHT22;3579;48.956;9.154;2023-04-20T11:31:17;21.90;48.80
7077;DHT22;3579;48.956;9.154;2023-04-20T11:33:43;22.00;48.90
7077;DHT22;3579;48.956;9.154;2023-04-20T11:36:27;22.00;49.00
7077;DHT22;3579;48.956;9.154;2023-04-20T11:39:12;22.00;48.90
7077;DHT22;3579;48.956;9.154;2023-04-20T11:41:38;22.00;48.90
7077;DHT22;3579;48.956;9.154;2023-04-20T11:44:07;21.90;48.90
7077;DHT22;3579;48.956;9.154;2023-04-20T11:46:34;21.80;48.80
7077;DHT22;3579;48.956;9.154;2023-04-20T11:49:03;21.80;49.00
7077;DHT22;3579;48.956;9.154;2023-04-20T11:51:29;21.80;49.00
7077;DHT22;3579;48.956;9.154;2023-04-20T11:53:56;21.10;45.00
7077;DHT22;3579;48.956;9.154;2023-04-20T11:56:22;20.50;46.00
7077;DHT22;3579;48.956;9.154;2023-04-20T11:58:48;21.00;47.40
7077;DHT22;3579;48.956;9.154;2023-04-20T12:01:14;21.30;47.20
7077;DHT22;3579;48.956;9.154;2023-04-20T12:03:42;21.60;46.90
7077;DHT22;3579;48.956;9.154;2023-04-20T12:06:08;21.80;46.60
7077;DHT22;3579;48.956;9.154;2023-04-20T12:08:34;21.80;46.30
7077;DHT22;3579;48.956;9.154;2023-04-20T12:11:00;21.90;46.70
7077;DHT22;3579;48.956;9.154;2023-04-20T12:13:26;22.00;47.00
7077;DHT22;3579;48.956;9.154;2023-04-20T12:15:52;22.20;47.10
7077;DHT22;3579;48.956;9.154;2023-04-20T12:18:18;22.20;47.00
7077;DHT22;3579;48.956;9.154;2023-04-20T12:20:44;22.40;47.20
7077;DHT22;3579;48.956;9.154;2023-04-20T12:23:12;22.40;47.10
7077;DHT22;3579;48.956;9.154;2023-04-20T12:25:38;22.50;47.30
7077;DHT22;3579;48.956;9.154;2023-04-20T12:28:04;22.50;47.30
7077;DHT22;3579;48.956;9.154;2023-04-20T12:30:33;22.60;47.50
7077;DHT22;3579;48.956;9.154;2023-04-20T12:33:01;22.60;47.50
7077;DHT22;3579;48.956;9.154;2023-04-20T12:35:28;22.60;47.30
7077;DHT22;3579;48.956;9.154;2023-04-20T12:37:54;22.70;47.40
7077;DHT22;3579;48.956;9.154;2023-04-20T12:40:21;22.70;47.50
7077;DHT22;3579;48.956;9.154;2023-04-20T12:42:47;22.70;47.50
7077;DHT22;3579;48.956;9.154;2023-04-20T12:45:14;22.70;47.30
7077;DHT22;3579;48.956;9.154;2023-04-20T12:47:40;22.80;47.70
7077;DHT22;3579;48.956;9.154;2023-04-20T12:50:06;21.70;42.10
7077;DHT22;3579;48.956;9.154;2023-04-20T12:52:33;22.00;46.70
7077;DHT22;3579;48.956;9.154;2023-04-20T12:54:59;22.30;46.70
7077;DHT22;3579;48.956;9.154;2023-04-20T12:57:26;22.60;46.70
7077;DHT22;3579;48.956;9.154;2023-04-20T12:59:52;22.60;46.60
7077;DHT22;3579;48.956;9.154;2023-04-20T13:02:19;22.70;46.80
7077;DHT22;3579;48.956;9.154;2023-04-20T13:04:45;22.70;46.80
7077;DHT22;3579;48.956;9.154;2023-04-20T13:07:11;22.70;47.10
7077;DHT22;3579;48.956;9.154;2023-04-20T13:09:38;22.70;47.20
7077;DHT22;3579;48.956;9.154;2023-04-20T13:12:04;22.70;47.70
7077;DHT22;3579;48.956;9.154;2023-04-20T13:14:30;22.70;47.60
7077;DHT22;3579;48.956;9.154;2023-04-20T13:16:57;22.70;48.10
7077;DHT22;3579;48.956;9.154;2023-04-20T13:19:29;22.70;47.90
7077;DHT22;3579;48.956;9.154;2023-04-20T13:21:56;22.80;48.60
7077;DHT22;3579;48.956;9.154;2023-04-20T13:24:22;22.70;48.10
7077;DHT22;3579;48.956;9.154;2023-04-20T13:26:52;23.50;48.90
7077;DHT22;3579;48.956;9.154;2023-04-20T13:29:24;22.70;48.20
7077;DHT22;3579;48.956;9.154;2023-04-20T13:31:51;22.70;48.50
7077;DHT22;3579;48.956;9.154;2023-04-20T13:34:17;22.60;48.40
7077;DHT22;3579;48.956;9.154;2023-04-20T13:36:43;22.60;48.80
7077;DHT22;3579;48.956;9.154;2023-04-20T13:39:11;22.60;49.00
7077;DHT22;3579;48.956;9.154;2023-04-20T13:41:37;22.60;48.60
7077;DHT22;3579;48.956;9.154;2023-04-20T13:44:04;22.60;48.70
7077;DHT22;3579;48.956;9.154;2023-04-20T13:46:30;22.60;49.00
7077;DHT22;3579;48.956;9.154;2023-04-20T13:48:57;22.50;49.40
7077;DHT22;3579;48.956;9.154;2023-04-20T13:51:23;22.50;49.30
7077;DHT22;3579;48.956;9.154;2023-04-20T13:53:49;22.50;49.40
7077;DHT22;3579;48.956;9.154;2023-04-20T13:56:16;22.50;49.40
7077;DHT22;3579;48.956;9.154;2023-04-20T13:58:42;22.50;49.40
7077;DHT22;3579;48.956;9.154;2023-04-20T14:01:11;22.40;49.50
7077;DHT22;3579;48.956;9.154;2023-04-20T14:03:37;22.40;49.60
7077;DHT22;3579;48.956;9.154;2023-04-20T14:06:04;22.40;49.70
7077;DHT22;3579;48.956;9.154;2023-04-20T14:08:30;22.30;49.70
7077;DHT22;3579;48.956;9.154;2023-04-20T14:10:56;22.30;50.00
7077;DHT22;3579;48.956;9.154;2023-04-20T14:13:23;22.30;50.00
7077;DHT22;3579;48.956;9.154;2023-04-20T14:15:50;22.20;49.90
7077;DHT22;3579;48.956;9.154;2023-04-20T14:18:16;22.20;50.10
7077;DHT22;3579;48.956;9.154;2023-04-20T14:20:42;22.20;50.20
7077;DHT22;3579;48.956;9.154;2023-04-20T14:23:09;22.20;50.20
7077;DHT22;3579;48.956;9.154;2023-04-20T14:25:35;22.20;50.30
7077;DHT22;3579;48.956;9.154;2023-04-20T14:28:01;22.10;50.50
7077;DHT22;3579;48.956;9.154;2023-04-20T14:30:27;22.10;50.60
7077;DHT22;3579;48.956;9.154;2023-04-20T14:32:58;22.10;50.60
7077;DHT22;3579;48.956;9.154;2023-04-20T14:35:26;22.10;50.60
7077;DHT22;3579;48.956;9.154;2023-04-20T14:37:52;22.10;50.70
7077;DHT22;3579;48.956;9.154;2023-04-20T14:40:19;22.00;50.70
7077;DHT22;3579;48.956;9.154;2023-04-20T14:42:46;22.00;50.80
7077;DHT22;3579;48.956;9.154;2023-04-20T14:45:17;20.90;50.00
7077;DHT22;3579;48.956;9.154;2023-04-20T14:47:43;22.00;51.00
7077;DHT22;3579;48.956;9.154;2023-04-20T14:50:09;22.00;51.00
7077;DHT22;3579;48.956;9.154;2023-04-20T14:52:36;21.90;51.10
7077;DHT22;3579;48.956;9.154;2023-04-20T14:55:02;21.90;51.20
7077;DHT22;3579;48.956;9.154;2023-04-20T14:57:29;21.90;51.20
7077;DHT22;3579;48.956;9.154;2023-04-20T14:59:56;21.90;51.40
7077;DHT22;3579;48.956;9.154;2023-04-20T15:02:21;21.90;51.50
7077;DHT22;3579;48.956;9.154;2023-04-20T15:04:48;21.70;50.10
7077;DHT22;3579;48.956;9.154;2023-04-20T15:07:19;21.60;48.30
7077;DHT22;3579;48.956;9.154;2023-04-20T15:09:45;21.60;49.50
7077;DHT22;3579;48.956;9.154;2023-04-20T15:12:12;21.50;49.30
7077;DHT22;3579;48.956;9.154;2023-04-20T15:14:38;21.50;48.60
7077;DHT22;3579;48.956;9.154;2023-04-20T15:17:04;21.50;48.30
7077;DHT22;3579;48.956;9.154;2023-04-20T15:19:30;21.50;47.90
7077;DHT22;3579;48.956;9.154;2023-04-20T15:21:56;21.50;48.20
7077;DHT22;3579;48.956;9.154;2023-04-20T15:24:22;21.50;47.80
7077;DHT22;3579;48.956;9.154;2023-04-20T15:26:48;21.50;47.90
7077;DHT22;3579;48.956;9.154;2023-04-20T15:29:14;21.50;47.70
7077;DHT22;3579;48.956;9.154;2023-04-20T15:31:40;21.50;47.50
7077;DHT22;3579;48.956;9.154;2023-04-20T15:34:08;21.60;47.30
7077;DHT22;3579;48.956;9.154;2023-04-20T15:36:35;21.60;47.40
7077;DHT22;3579;48.956;9.154;2023-04-20T15:39:02;21.60;47.00
7077;DHT22;3579;48.956;9.154;2023-04-20T15:41:28;21.60;46.90
7077;DHT22;3579;48.956;9.154;2023-04-20T15:43:54;21.60;46.80
7077;DHT22;3579;48.956;9.154;2023-04-20T15:46:20;21.60;46.80
7077;DHT22;3579;48.956;9.154;2023-04-20T15:48:49;21.60;46.70
7077;DHT22;3579;48.956;9.154;2023-04-20T15:51:15;21.60;46.50
7077;DHT22;3579;48.956;9.154;2023-04-20T15:53:42;21.60;46.40
7077;DHT22;3579;48.956;9.154;2023-04-20T15:56:12;21.90;46.60
7077;DHT22;3579;48.956;9.154;2023-04-20T15:58:38;22.00;46.30
7077;DHT22;3579;48.956;9.154;2023-04-20T16:01:06;21.90;46.50
7077;DHT22;3579;48.956;9.154;2023-04-20T16:03:32;21.90;46.70
7077;DHT22;3579;48.956;9.154;2023-04-20T16:05:58;21.80;46.70
7077;DHT22;3579;48.956;9.154;2023-04-20T16:08:24;21.70;47.50